sensor_id;sensor_type;location;lat;lon;timestamp;P1;durP1;ratioP1;P2;durP2;ratioP2
18720;SDS011;9489;50.948;3.114;2023-02-11T00:00:23;11.45;;;7.90;;
18720;SDS011;9489;50.948;3.114;2023-02-11T00:02:49;17.15;;;7.97;;
18720;SDS011;9489;50.948;3.114;2023-02-11T00:05:14;11.85;;;7.85;;
18720;SDS011;9489;50.948;3.114;2023-02-11T00:07:40;14.75;;;7.43;;
18720;SDS011;9489;50.948;3.114;2023-02-11T00:10:06;15.80;;;7.90;;
18720;SDS011;9489;50.948;3.114;2023-02-11T00:12:32;12.70;;;8.20;;
18720;SDS011;9489;50.948;3.114;2023-02-11T00:14:59;10.95;;;7.70;;
18720;SDS011;9489;50.948;3.114;2023-02-11T00:17:24;12.55;;;7.90;;
18720;SDS011;9489;50.948;3.114;2023-02-11T00:19:50;17.48;;;8.43;;
18720;SDS011;9489;50.948;3.114;2023-02-11T00:22:17;14.10;;;8.48;;
18720;SDS011;9489;50.948;3.114;2023-02-11T00:24:43;11.65;;;8.05;;
18720;SDS011;9489;50.948;3.114;2023-02-11T00:27:09;16.15;;;8.43;;
18720;SDS011;9489;50.948;3.114;2023-02-11T00:29:35;11.88;;;7.82;;
18720;SDS011;9489;50.948;3.114;2023-02-11T00:32:01;9.90;;;7.75;;
18720;SDS011;9489;50.948;3.114;2023-02-11T00:34:32;13.20;;;8.00;;
18720;SDS011;9489;50.948;3.114;2023-02-11T00:36:58;16.75;;;10.25;;
18720;SDS011;9489;50.948;3.114;2023-02-11T00:39:24;14.98;;;8.48;;
18720;SDS011;9489;50.948;3.114;2023-02-11T00:41:50;14.13;;;9.00;;
18720;SDS011;9489;50.948;3.114;2023-02-11T00:44:16;13.55;;;8.63;;
18720;SDS011;9489;50.948;3.114;2023-02-11T00:46:41;16.55;;;9.45;;
18720;SDS011;9489;50.948;3.114;2023-02-11T00:49:07;14.10;;;8.98;;
18720;SDS011;9489;50.948;3.114;2023-02-11T00:51:33;13.00;;;8.20;;
18720;SDS011;9489;50.948;3.114;2023-02-11T00:53:58;13.98;;;9.70;;
18720;SDS011;9489;50.948;3.114;2023-02-11T00:56:24;12.85;;;8.98;;
18720;SDS011;9489;50.948;3.114;2023-02-11T00:58:50;17.33;;;9.27;;
18720;SDS011;9489;50.948;3.114;2023-02-11T01:01:17;13.32;;;9.15;;
18720;SDS011;9489;50.948;3.114;2023-02-11T01:03:43;14.13;;;9.95;;
18720;SDS011;9489;50.948;3.114;2023-02-11T01:06:08;15.05;;;9.70;;
18720;SDS011;9489;50.948;3.114;2023-02-11T01:08:34;15.15;;;10.32;;
18720;SDS011;9489;50.948;3.114;2023-02-11T01:11:02;17.17;;;10.57;;
18720;SDS011;9489;50.948;3.114;2023-02-11T01:13:31;18.25;;;9.38;;
18720;SDS011;9489;50.948;3.114;2023-02-11T01:15:59;13.55;;;9.40;;
18720;SDS011;9489;50.948;3.114;2023-02-11T01:18:25;17.77;;;10.50;;
18720;SDS011;9489;50.948;3.114;2023-02-11T01:20:51;14.77;;;9.70;;
18720;SDS011;9489;50.948;3.114;2023-02-11T01:23:17;15.18;;;9.15;;
18720;SDS011;9489;50.948;3.114;2023-02-11T01:25:43;15.75;;;10.60;;
18720;SDS011;9489;50.948;3.114;2023-02-11T01:28:17;13.57;;;10.20;;
18720;SDS011;9489;50.948;3.114;2023-02-11T01:30:44;15.27;;;10.68;;
18720;SDS011;9489;50.948;3.114;2023-02-11T01:33:10;14.02;;;9.82;;
18720;SDS011;9489;50.948;3.114;2023-02-11T01:35:36;14.18;;;9.55;;
18720;SDS011;9489;50.948;3.114;2023-02-11T01:38:03;15.95;;;10.63;;
18720;SDS011;9489;50.948;3.114;2023-02-11T01:40:29;14.57;;;10.77;;
18720;SDS011;9489;50.948;3.114;2023-02-11T01:42:54;19.20;;;12.07;;
18720;SDS011;9489;50.948;3.114;2023-02-11T01:48:17;18.17;;;12.15;;
18720;SDS011;9489;50.948;3.114;2023-02-11T01:50:50;18.25;;;12.57;;
18720;SDS011;9489;50.948;3.114;2023-02-11T01:53:19;17.00;;;10.93;;
18720;SDS011;9489;50.948;3.114;2023-02-11T01:56:04;17.67;;;11.80;;
18720;SDS011;9489;50.948;3.114;2023-02-11T01:58:49;16.55;;;11.90;;
18720;SDS011;9489;50.948;3.114;2023-02-11T02:01:18;14.52;;;11.00;;
18720;SDS011;9489;50.948;3.114;2023-02-11T02:03:47;17.80;;;11.77;;
18720;SDS011;9489;50.948;3.114;2023-02-11T02:06:29;18.58;;;11.30;;
18720;SDS011;9489;50.948;3.114;2023-02-11T02:09:04;16.88;;;11.60;;
18720;SDS011;9489;50.948;3.114;2023-02-11T02:11:33;17.63;;;11.60;;
18720;SDS011;9489;50.948;3.114;2023-02-11T02:14:00;13.55;;;10.93;;
18720;SDS011;9489;50.948;3.114;2023-02-11T02:16:29;17.45;;;12.48;;
18720;SDS011;9489;50.948;3.114;2023-02-11T02:19:10;16.80;;;11.75;;
18720;SDS011;9489;50.948;3.114;2023-02-11T02:27:40;15.18;;;12.00;;
18720;SDS011;9489;50.948;3.114;2023-02-11T02:35:37;16.45;;;11.52;;
18720;SDS011;9489;50.948;3.114;2023-02-11T02:41:02;14.38;;;11.60;;
18720;SDS011;9489;50.948;3.114;2023-02-11T02:43:31;16.02;;;11.85;;
18720;SDS011;9489;50.948;3.114;2023-02-11T02:46:12;14.30;;;11.73;;
18720;SDS011;9489;50.948;3.114;2023-02-11T02:48:41;14.93;;;11.35;;
18720;SDS011;9489;50.948;3.114;2023-02-11T02:53:53;18.33;;;11.60;;
18720;SDS011;9489;50.948;3.114;2023-02-11T03:02:47;19.02;;;12.10;;
18720;SDS011;9489;50.948;3.114;2023-02-11T03:05:29;13.20;;;11.90;;
18720;SDS011;9489;50.948;3.114;2023-02-11T03:08:07;16.73;;;10.85;;
18720;SDS011;9489;50.948;3.114;2023-02-11T03:10:39;16.02;;;12.63;;
18720;SDS011;9489;50.948;3.114;2023-02-11T03:13:12;16.08;;;11.38;;
18720;SDS011;9489;50.948;3.114;2023-02-11T03:15:43;18.45;;;12.18;;
18720;SDS011;9489;50.948;3.114;2023-02-11T03:18:13;17.95;;;12.65;;
18720;SDS011;9489;50.948;3.114;2023-02-11T03:20:43;16.33;;;12.63;;
18720;SDS011;9489;50.948;3.114;2023-02-11T03:23:17;16.77;;;13.15;;
18720;SDS011;9489;50.948;3.114;2023-02-11T03:26:06;16.55;;;12.55;;
18720;SDS011;9489;50.948;3.114;2023-02-11T03:29:23;20.05;;;13.07;;
18720;SDS011;9489;50.948;3.114;2023-02-11T03:32:03;21.50;;;13.32;;
18720;SDS011;9489;50.948;3.114;2023-02-11T03:37:50;17.20;;;12.88;;
18720;SDS011;9489;50.948;3.114;2023-02-11T03:40:21;18.27;;;13.20;;
18720;SDS011;9489;50.948;3.114;2023-02-11T03:43:02;16.30;;;13.23;;
18720;SDS011;9489;50.948;3.114;2023-02-11T03:45:52;19.30;;;13.13;;
18720;SDS011;9489;50.948;3.114;2023-02-11T03:48:30;19.63;;;14.00;;
18720;SDS011;9489;50.948;3.114;2023-02-11T03:51:01;18.17;;;13.25;;
18720;SDS011;9489;50.948;3.114;2023-02-11T03:53:30;17.17;;;12.77;;
18720;SDS011;9489;50.948;3.114;2023-02-11T03:55:56;21.77;;;13.60;;
18720;SDS011;9489;50.948;3.114;2023-02-11T03:58:26;17.42;;;13.23;;
18720;SDS011;9489;50.948;3.114;2023-02-11T04:00:51;18.10;;;13.10;;
18720;SDS011;9489;50.948;3.114;2023-02-11T04:03:17;15.95;;;13.13;;
18720;SDS011;9489;50.948;3.114;2023-02-11T04:05:43;16.30;;;13.88;;
18720;SDS011;9489;50.948;3.114;2023-02-11T04:08:08;16.92;;;13.05;;
18720;SDS011;9489;50.948;3.114;2023-02-11T04:10:34;19.02;;;13.63;;
18720;SDS011;9489;50.948;3.114;2023-02-11T04:13:00;18.85;;;13.32;;
18720;SDS011;9489;50.948;3.114;2023-02-11T04:15:25;17.83;;;12.85;;
18720;SDS011;9489;50.948;3.114;2023-02-11T04:17:51;18.80;;;13.85;;
18720;SDS011;9489;50.948;3.114;2023-02-11T04:20:16;17.70;;;12.07;;
18720;SDS011;9489;50.948;3.114;2023-02-11T04:22:42;17.42;;;13.40;;
18720;SDS011;9489;50.948;3.114;2023-02-11T04:25:08;20.10;;;13.60;;
18720;SDS011;9489;50.948;3.114;2023-02-11T04:27:34;17.02;;;13.57;;
18720;SDS011;9489;50.948;3.114;2023-02-11T04:30:00;23.60;;;14.38;;
18720;SDS011;9489;50.948;3.114;2023-02-11T04:32:26;18.55;;;12.43;;
18720;SDS011;9489;50.948;3.114;2023-02-11T04:34:51;20.52;;;14.10;;
18720;SDS011;9489;50.948;3.114;2023-02-11T04:37:18;19.58;;;13.85;;
18720;SDS011;9489;50.948;3.114;2023-02-11T04:39:45;17.58;;;13.68;;
18720;SDS011;9489;50.948;3.114;2023-02-11T04:42:10;18.10;;;13.82;;
18720;SDS011;9489;50.948;3.114;2023-02-11T04:44:36;15.70;;;13.43;;
18720;SDS011;9489;50.948;3.114;2023-02-11T04:47:02;20.02;;;13.98;;
18720;SDS011;9489;50.948;3.114;2023-02-11T04:49:27;19.45;;;14.45;;
18720;SDS011;9489;50.948;3.114;2023-02-11T04:51:53;16.80;;;12.98;;
18720;SDS011;9489;50.948;3.114;2023-02-11T04:54:18;23.15;;;15.05;;
18720;SDS011;9489;50.948;3.114;2023-02-11T04:56:44;17.38;;;14.43;;
18720;SDS011;9489;50.948;3.114;2023-02-11T04:59:10;20.42;;;14.00;;
18720;SDS011;9489;50.948;3.114;2023-02-11T05:01:37;17.10;;;12.98;;
18720;SDS011;9489;50.948;3.114;2023-02-11T05:04:03;15.85;;;13.23;;
18720;SDS011;9489;50.948;3.114;2023-02-11T05:06:29;17.58;;;14.50;;
18720;SDS011;9489;50.948;3.114;2023-02-11T05:08:54;18.17;;;14.13;;
18720;SDS011;9489;50.948;3.114;2023-02-11T05:11:21;18.77;;;14.77;;
18720;SDS011;9489;50.948;3.114;2023-02-11T05:13:48;20.77;;;14.88;;
18720;SDS011;9489;50.948;3.114;2023-02-11T05:16:14;18.77;;;13.70;;
18720;SDS011;9489;50.948;3.114;2023-02-11T05:18:41;21.23;;;14.45;;
18720;SDS011;9489;50.948;3.114;2023-02-11T05:21:09;21.27;;;15.20;;
18720;SDS011;9489;50.948;3.114;2023-02-11T05:23:37;17.60;;;13.60;;
18720;SDS011;9489;50.948;3.114;2023-02-11T05:26:03;21.50;;;15.20;;
18720;SDS011;9489;50.948;3.114;2023-02-11T05:28:29;22.50;;;14.82;;
18720;SDS011;9489;50.948;3.114;2023-02-11T05:30:55;22.23;;;16.27;;
18720;SDS011;9489;50.948;3.114;2023-02-11T05:33:21;19.35;;;15.63;;
18720;SDS011;9489;50.948;3.114;2023-02-11T05:35:47;21.48;;;15.77;;
18720;SDS011;9489;50.948;3.114;2023-02-11T05:38:12;21.65;;;15.90;;
18720;SDS011;9489;50.948;3.114;2023-02-11T05:40:38;26.25;;;16.77;;
18720;SDS011;9489;50.948;3.114;2023-02-11T05:43:04;18.80;;;14.88;;
18720;SDS011;9489;50.948;3.114;2023-02-11T05:45:29;24.00;;;16.38;;
18720;SDS011;9489;50.948;3.114;2023-02-11T05:47:55;22.25;;;16.65;;
18720;SDS011;9489;50.948;3.114;2023-02-11T05:50:22;22.70;;;16.42;;
18720;SDS011;9489;50.948;3.114;2023-02-11T05:52:47;23.27;;;16.40;;
18720;SDS011;9489;50.948;3.114;2023-02-11T05:55:13;21.95;;;15.73;;
18720;SDS011;9489;50.948;3.114;2023-02-11T05:57:39;21.50;;;16.60;;
18720;SDS011;9489;50.948;3.114;2023-02-11T06:00:05;20.63;;;16.98;;
18720;SDS011;9489;50.948;3.114;2023-02-11T06:02:32;18.08;;;16.17;;
18720;SDS011;9489;50.948;3.114;2023-02-11T06:04:57;21.63;;;16.90;;
18720;SDS011;9489;50.948;3.114;2023-02-11T06:07:23;20.92;;;17.38;;
18720;SDS011;9489;50.948;3.114;2023-02-11T06:09:49;23.55;;;17.63;;
18720;SDS011;9489;50.948;3.114;2023-02-11T06:12:14;20.65;;;15.75;;
18720;SDS011;9489;50.948;3.114;2023-02-11T06:14:40;23.05;;;17.75;;
18720;SDS011;9489;50.948;3.114;2023-02-11T06:17:06;24.38;;;17.23;;
18720;SDS011;9489;50.948;3.114;2023-02-11T06:19:32;20.30;;;18.15;;
18720;SDS011;9489;50.948;3.114;2023-02-11T06:21:57;23.65;;;18.90;;
18720;SDS011;9489;50.948;3.114;2023-02-11T06:24:23;22.20;;;18.15;;
18720;SDS011;9489;50.948;3.114;2023-02-11T06:26:49;25.50;;;18.30;;
18720;SDS011;9489;50.948;3.114;2023-02-11T06:29:14;22.33;;;18.77;;
18720;SDS011;9489;50.948;3.114;2023-02-11T06:31:40;26.55;;;19.10;;
18720;SDS011;9489;50.948;3.114;2023-02-11T06:34:09;27.25;;;18.73;;
18720;SDS011;9489;50.948;3.114;2023-02-11T06:36:35;28.80;;;20.83;;
18720;SDS011;9489;50.948;3.114;2023-02-11T06:39:03;27.52;;;21.25;;
18720;SDS011;9489;50.948;3.114;2023-02-11T06:41:29;30.50;;;22.52;;
18720;SDS011;9489;50.948;3.114;2023-02-11T06:43:54;33.63;;;24.35;;
18720;SDS011;9489;50.948;3.114;2023-02-11T06:46:20;32.33;;;23.65;;
18720;SDS011;9489;50.948;3.114;2023-02-11T06:48:45;35.13;;;24.80;;
18720;SDS011;9489;50.948;3.114;2023-02-11T06:51:12;29.25;;;23.02;;
18720;SDS011;9489;50.948;3.114;2023-02-11T06:53:40;39.15;;;25.15;;
18720;SDS011;9489;50.948;3.114;2023-02-11T06:56:08;33.40;;;24.08;;
18720;SDS011;9489;50.948;3.114;2023-02-11T06:58:36;38.33;;;26.58;;
18720;SDS011;9489;50.948;3.114;2023-02-11T07:01:08;32.53;;;24.15;;
18720;SDS011;9489;50.948;3.114;2023-02-11T07:03:37;34.05;;;24.00;;
18720;SDS011;9489;50.948;3.114;2023-02-11T07:06:04;36.30;;;24.85;;
18720;SDS011;9489;50.948;3.114;2023-02-11T07:08:34;32.47;;;24.52;;
18720;SDS011;9489;50.948;3.114;2023-02-11T07:11:00;39.15;;;27.13;;
18720;SDS011;9489;50.948;3.114;2023-02-11T07:13:32;34.03;;;25.65;;
18720;SDS011;9489;50.948;3.114;2023-02-11T07:15:57;36.92;;;25.58;;
18720;SDS011;9489;50.948;3.114;2023-02-11T07:18:23;37.92;;;27.23;;
18720;SDS011;9489;50.948;3.114;2023-02-11T07:20:49;35.97;;;26.75;;
18720;SDS011;9489;50.948;3.114;2023-02-11T07:23:14;36.38;;;26.75;;
18720;SDS011;9489;50.948;3.114;2023-02-11T07:25:40;37.33;;;27.60;;
18720;SDS011;9489;50.948;3.114;2023-02-11T07:28:05;38.30;;;28.35;;
18720;SDS011;9489;50.948;3.114;2023-02-11T07:30:31;35.67;;;27.30;;
18720;SDS011;9489;50.948;3.114;2023-02-11T07:32:56;34.88;;;26.95;;
18720;SDS011;9489;50.948;3.114;2023-02-11T07:35:22;38.10;;;28.65;;
18720;SDS011;9489;50.948;3.114;2023-02-11T07:37:47;38.67;;;26.48;;
18720;SDS011;9489;50.948;3.114;2023-02-11T07:40:13;41.03;;;28.75;;
18720;SDS011;9489;50.948;3.114;2023-02-11T07:42:40;39.55;;;28.52;;
18720;SDS011;9489;50.948;3.114;2023-02-11T07:45:07;38.28;;;28.75;;
18720;SDS011;9489;50.948;3.114;2023-02-11T07:47:35;36.53;;;26.23;;
18720;SDS011;9489;50.948;3.114;2023-02-11T07:50:08;39.97;;;28.15;;
18720;SDS011;9489;50.948;3.114;2023-02-11T07:52:42;35.97;;;28.30;;
18720;SDS011;9489;50.948;3.114;2023-02-11T07:55:07;44.47;;;28.92;;
18720;SDS011;9489;50.948;3.114;2023-02-11T07:57:34;40.17;;;29.95;;
18720;SDS011;9489;50.948;3.114;2023-02-11T07:59:59;39.30;;;30.58;;
18720;SDS011;9489;50.948;3.114;2023-02-11T08:02:25;49.47;;;32.40;;
18720;SDS011;9489;50.948;3.114;2023-02-11T08:04:51;40.00;;;30.48;;
18720;SDS011;9489;50.948;3.114;2023-02-11T08:07:17;42.30;;;30.48;;
18720;SDS011;9489;50.948;3.114;2023-02-11T08:09:43;39.72;;;29.17;;
18720;SDS011;9489;50.948;3.114;2023-02-11T08:12:09;41.90;;;29.88;;
18720;SDS011;9489;50.948;3.114;2023-02-11T08:14:35;39.35;;;29.55;;
18720;SDS011;9489;50.948;3.114;2023-02-11T08:17:01;37.22;;;29.05;;
18720;SDS011;9489;50.948;3.114;2023-02-11T08:19:27;40.92;;;30.02;;
18720;SDS011;9489;50.948;3.114;2023-02-11T08:21:57;40.80;;;29.88;;
18720;SDS011;9489;50.948;3.114;2023-02-11T08:24:25;37.30;;;30.02;;
18720;SDS011;9489;50.948;3.114;2023-02-11T08:26:50;36.05;;;29.38;;
18720;SDS011;9489;50.948;3.114;2023-02-11T08:29:16;35.50;;;26.83;;
18720;SDS011;9489;50.948;3.114;2023-02-11T08:31:43;32.28;;;27.75;;
18720;SDS011;9489;50.948;3.114;2023-02-11T08:34:11;36.08;;;27.10;;
18720;SDS011;9489;50.948;3.114;2023-02-11T08:36:38;32.58;;;27.77;;
18720;SDS011;9489;50.948;3.114;2023-02-11T08:39:06;38.58;;;28.50;;
18720;SDS011;9489;50.948;3.114;2023-02-11T08:41:36;34.85;;;26.95;;
18720;SDS011;9489;50.948;3.114;2023-02-11T08:44:02;33.78;;;26.65;;
18720;SDS011;9489;50.948;3.114;2023-02-11T08:46:27;31.85;;;26.80;;
18720;SDS011;9489;50.948;3.114;2023-02-11T08:48:53;34.55;;;27.98;;
18720;SDS011;9489;50.948;3.114;2023-02-11T08:51:21;34.47;;;27.83;;
18720;SDS011;9489;50.948;3.114;2023-02-11T08:53:48;34.88;;;27.70;;
18720;SDS011;9489;50.948;3.114;2023-02-11T08:56:15;32.22;;;26.10;;
18720;SDS011;9489;50.948;3.114;2023-02-11T08:58:42;31.98;;;27.10;;
18720;SDS011;9489;50.948;3.114;2023-02-11T09:01:08;31.60;;;25.80;;
18720;SDS011;9489;50.948;3.114;2023-02-11T09:03:39;33.40;;;26.30;;
18720;SDS011;9489;50.948;3.114;2023-02-11T09:06:06;31.02;;;26.08;;
18720;SDS011;9489;50.948;3.114;2023-02-11T09:08:33;30.10;;;26.05;;
18720;SDS011;9489;50.948;3.114;2023-02-11T09:11:00;28.73;;;25.35;;
18720;SDS011;9489;50.948;3.114;2023-02-11T09:13:26;30.08;;;25.60;;
18720;SDS011;9489;50.948;3.114;2023-02-11T09:15:52;30.88;;;26.70;;
18720;SDS011;9489;50.948;3.114;2023-02-11T09:18:18;32.10;;;25.38;;
18720;SDS011;9489;50.948;3.114;2023-02-11T09:20:43;28.23;;;24.88;;
18720;SDS011;9489;50.948;3.114;2023-02-11T09:23:09;28.98;;;24.52;;
18720;SDS011;9489;50.948;3.114;2023-02-11T09:25:37;30.48;;;25.08;;
18720;SDS011;9489;50.948;3.114;2023-02-11T09:28:04;26.83;;;23.92;;
18720;SDS011;9489;50.948;3.114;2023-02-11T09:30:30;27.13;;;23.55;;
18720;SDS011;9489;50.948;3.114;2023-02-11T09:32:55;27.70;;;24.02;;
18720;SDS011;9489;50.948;3.114;2023-02-11T09:35:21;28.17;;;24.25;;
18720;SDS011;9489;50.948;3.114;2023-02-11T09:37:46;28.00;;;23.00;;
18720;SDS011;9489;50.948;3.114;2023-02-11T09:40:13;27.17;;;24.05;;
18720;SDS011;9489;50.948;3.114;2023-02-11T09:45:22;27.58;;;22.52;;
18720;SDS011;9489;50.948;3.114;2023-02-11T09:50:23;25.88;;;21.90;;
18720;SDS011;9489;50.948;3.114;2023-02-11T09:55:24;23.90;;;20.95;;
18720;SDS011;9489;50.948;3.114;2023-02-11T09:57:52;25.63;;;22.85;;
18720;SDS011;9489;50.948;3.114;2023-02-11T10:00:21;23.85;;;21.27;;
18720;SDS011;9489;50.948;3.114;2023-02-11T10:05:31;26.00;;;22.20;;
18720;SDS011;9489;50.948;3.114;2023-02-11T10:19:22;24.73;;;22.23;;
18720;SDS011;9489;50.948;3.114;2023-02-11T10:25:55;26.55;;;23.73;;
18720;SDS011;9489;50.948;3.114;2023-02-11T10:28:13;25.80;;;23.20;;
18720;SDS011;9489;50.948;3.114;2023-02-11T10:33:58;24.08;;;21.38;;
18720;SDS011;9489;50.948;3.114;2023-02-11T10:36:32;22.10;;;19.80;;
18720;SDS011;9489;50.948;3.114;2023-02-11T10:38:59;24.52;;;21.83;;
18720;SDS011;9489;50.948;3.114;2023-02-11T10:41:35;23.17;;;20.75;;
18720;SDS011;9489;50.948;3.114;2023-02-11T10:44:05;21.48;;;19.20;;
18720;SDS011;9489;50.948;3.114;2023-02-11T10:46:32;23.30;;;20.88;;
18720;SDS011;9489;50.948;3.114;2023-02-11T10:49:01;24.50;;;21.80;;
18720;SDS011;9489;50.948;3.114;2023-02-11T10:51:31;21.73;;;19.50;;
18720;SDS011;9489;50.948;3.114;2023-02-11T10:56:33;21.90;;;19.45;;
18720;SDS011;9489;50.948;3.114;2023-02-11T10:59:04;22.38;;;20.05;;
18720;SDS011;9489;50.948;3.114;2023-02-11T11:01:53;21.85;;;19.55;;
18720;SDS011;9489;50.948;3.114;2023-02-11T11:06:56;21.27;;;19.08;;
18720;SDS011;9489;50.948;3.114;2023-02-11T11:09:43;23.38;;;20.98;;
18720;SDS011;9489;50.948;3.114;2023-02-11T11:12:27;20.92;;;18.75;;
18720;SDS011;9489;50.948;3.114;2023-02-11T11:15:15;20.45;;;18.25;;
18720;SDS011;9489;50.948;3.114;2023-02-11T11:17:44;21.25;;;19.02;;
18720;SDS011;9489;50.948;3.114;2023-02-11T11:23:08;20.50;;;18.00;;
18720;SDS011;9489;50.948;3.114;2023-02-11T11:25:57;21.30;;;18.77;;
18720;SDS011;9489;50.948;3.114;2023-02-11T11:28:56;19.92;;;17.77;;
18720;SDS011;9489;50.948;3.114;2023-02-11T11:31:29;19.48;;;17.58;;
18720;SDS011;9489;50.948;3.114;2023-02-11T11:33:58;19.13;;;17.10;;
18720;SDS011;9489;50.948;3.114;2023-02-11T11:36:35;20.45;;;18.25;;
18720;SDS011;9489;50.948;3.114;2023-02-11T11:39:25;20.33;;;18.35;;
18720;SDS011;9489;50.948;3.114;2023-02-11T11:42:04;19.92;;;17.83;;
18720;SDS011;9489;50.948;3.114;2023-02-11T11:47:24;21.38;;;17.83;;
18720;SDS011;9489;50.948;3.114;2023-02-11T11:58:49;22.52;;;18.27;;
18720;SDS011;9489;50.948;3.114;2023-02-11T12:01:21;20.13;;;18.02;;
18720;SDS011;9489;50.948;3.114;2023-02-11T12:14:54;22.83;;;20.50;;
18720;SDS011;9489;50.948;3.114;2023-02-11T12:20:30;21.17;;;19.10;;
18720;SDS011;9489;50.948;3.114;2023-02-11T12:26:01;21.42;;;19.15;;
18720;SDS011;9489;50.948;3.114;2023-02-11T12:54:19;23.38;;;20.95;;
18720;SDS011;9489;50.948;3.114;2023-02-11T12:56:50;22.70;;;20.33;;
18720;SDS011;9489;50.948;3.114;2023-02-11T13:02:10;23.50;;;21.15;;
18720;SDS011;9489;50.948;3.114;2023-02-11T13:04:45;22.45;;;20.10;;
18720;SDS011;9489;50.948;3.114;2023-02-11T13:07:18;22.33;;;19.98;;
18720;SDS011;9489;50.948;3.114;2023-02-11T13:10:00;23.40;;;20.90;;
18720;SDS011;9489;50.948;3.114;2023-02-11T13:12:48;23.15;;;20.77;;
18720;SDS011;9489;50.948;3.114;2023-02-11T13:15:34;22.65;;;20.33;;
18720;SDS011;9489;50.948;3.114;2023-02-11T13:18:02;21.48;;;19.15;;
18720;SDS011;9489;50.948;3.114;2023-02-11T13:26:18;21.60;;;19.48;;
18720;SDS011;9489;50.948;3.114;2023-02-11T13:31:25;23.70;;;21.23;;
18720;SDS011;9489;50.948;3.114;2023-02-11T13:33:52;23.08;;;20.75;;
18720;SDS011;9489;50.948;3.114;2023-02-11T13:36:19;21.98;;;19.70;;
18720;SDS011;9489;50.948;3.114;2023-02-11T13:38:53;21.48;;;19.27;;
18720;SDS011;9489;50.948;3.114;2023-02-11T13:41:24;21.73;;;19.42;;
18720;SDS011;9489;50.948;3.114;2023-02-11T13:43:58;21.30;;;19.10;;
18720;SDS011;9489;50.948;3.114;2023-02-11T13:46:49;22.00;;;19.80;;
18720;SDS011;9489;50.948;3.114;2023-02-11T13:51:59;20.98;;;18.77;;
18720;SDS011;9489;50.948;3.114;2023-02-11T13:54:32;22.23;;;19.75;;
18720;SDS011;9489;50.948;3.114;2023-02-11T13:59:48;20.98;;;18.88;;
18720;SDS011;9489;50.948;3.114;2023-02-11T14:11:07;17.85;;;15.95;;
18720;SDS011;9489;50.948;3.114;2023-02-11T14:21:19;20.60;;;17.52;;
18720;SDS011;9489;50.948;3.114;2023-02-11T14:24:39;18.58;;;16.83;;
18720;SDS011;9489;50.948;3.114;2023-02-11T14:26:49;19.38;;;17.10;;
18720;SDS011;9489;50.948;3.114;2023-02-11T14:37:56;18.58;;;16.60;;
18720;SDS011;9489;50.948;3.114;2023-02-11T14:43:11;19.23;;;17.23;;
18720;SDS011;9489;50.948;3.114;2023-02-11T14:45:40;19.13;;;17.13;;
18720;SDS011;9489;50.948;3.114;2023-02-11T14:48:14;20.60;;;17.92;;
18720;SDS011;9489;50.948;3.114;2023-02-11T14:53:12;18.70;;;16.63;;
18720;SDS011;9489;50.948;3.114;2023-02-11T14:55:48;18.58;;;16.73;;
18720;SDS011;9489;50.948;3.114;2023-02-11T15:00:58;17.20;;;15.48;;
18720;SDS011;9489;50.948;3.114;2023-02-11T15:03:37;17.40;;;15.60;;
18720;SDS011;9489;50.948;3.114;2023-02-11T15:06:06;18.98;;;17.05;;
18720;SDS011;9489;50.948;3.114;2023-02-11T15:08:49;17.70;;;15.82;;
18720;SDS011;9489;50.948;3.114;2023-02-11T15:11:18;17.73;;;15.93;;
18720;SDS011;9489;50.948;3.114;2023-02-11T15:13:46;17.42;;;14.88;;
18720;SDS011;9489;50.948;3.114;2023-02-11T15:16:19;17.77;;;15.77;;
18720;SDS011;9489;50.948;3.114;2023-02-11T15:18:48;17.23;;;15.43;;
18720;SDS011;9489;50.948;3.114;2023-02-11T15:21:24;17.20;;;15.40;;
18720;SDS011;9489;50.948;3.114;2023-02-11T15:29:26;17.65;;;15.80;;
18720;SDS011;9489;50.948;3.114;2023-02-11T15:32:03;18.38;;;16.40;;
18720;SDS011;9489;50.948;3.114;2023-02-11T15:34:50;17.35;;;15.55;;
18720;SDS011;9489;50.948;3.114;2023-02-11T15:37:27;18.58;;;15.95;;
18720;SDS011;9489;50.948;3.114;2023-02-11T15:39:54;17.00;;;14.75;;
18720;SDS011;9489;50.948;3.114;2023-02-11T15:42:31;16.80;;;15.00;;
18720;SDS011;9489;50.948;3.114;2023-02-11T15:45:07;15.63;;;13.82;;
18720;SDS011;9489;50.948;3.114;2023-02-11T15:47:40;16.88;;;15.07;;
18720;SDS011;9489;50.948;3.114;2023-02-11T15:50:31;15.57;;;14.07;;
18720;SDS011;9489;50.948;3.114;2023-02-11T15:53:02;15.32;;;13.43;;
18720;SDS011;9489;50.948;3.114;2023-02-11T15:55:41;16.67;;;12.88;;
18720;SDS011;9489;50.948;3.114;2023-02-11T15:58:07;16.63;;;13.40;;
18720;SDS011;9489;50.948;3.114;2023-02-11T16:00:35;15.75;;;14.05;;
18720;SDS011;9489;50.948;3.114;2023-02-11T16:03:16;14.27;;;12.77;;
18720;SDS011;9489;50.948;3.114;2023-02-11T16:06:18;16.63;;;13.32;;
18720;SDS011;9489;50.948;3.114;2023-02-11T16:08:55;16.58;;;14.30;;
18720;SDS011;9489;50.948;3.114;2023-02-11T16:19:51;16.50;;;14.95;;
18720;SDS011;9489;50.948;3.114;2023-02-11T16:22:19;16.90;;;15.10;;
18720;SDS011;9489;50.948;3.114;2023-02-11T16:24:49;16.70;;;14.52;;
18720;SDS011;9489;50.948;3.114;2023-02-11T16:29:54;16.08;;;13.25;;
18720;SDS011;9489;50.948;3.114;2023-02-11T16:32:22;13.75;;;12.32;;
18720;SDS011;9489;50.948;3.114;2023-02-11T16:34:50;14.02;;;12.35;;
18720;SDS011;9489;50.948;3.114;2023-02-11T16:37:17;15.70;;;13.77;;
18720;SDS011;9489;50.948;3.114;2023-02-11T16:39:42;14.48;;;12.98;;
18720;SDS011;9489;50.948;3.114;2023-02-11T16:42:09;13.80;;;12.38;;
18720;SDS011;9489;50.948;3.114;2023-02-11T16:44:38;15.68;;;14.00;;
18720;SDS011;9489;50.948;3.114;2023-02-11T16:47:05;14.85;;;13.35;;
18720;SDS011;9489;50.948;3.114;2023-02-11T16:49:47;14.10;;;12.73;;
18720;SDS011;9489;50.948;3.114;2023-02-11T16:52:13;15.18;;;13.65;;
18720;SDS011;9489;50.948;3.114;2023-02-11T16:54:40;15.93;;;13.90;;
18720;SDS011;9489;50.948;3.114;2023-02-11T16:57:22;18.38;;;13.32;;
18720;SDS011;9489;50.948;3.114;2023-02-11T16:59:49;16.00;;;14.30;;
18720;SDS011;9489;50.948;3.114;2023-02-11T17:02:25;16.05;;;14.45;;
18720;SDS011;9489;50.948;3.114;2023-02-11T17:04:52;16.90;;;15.02;;
18720;SDS011;9489;50.948;3.114;2023-02-11T17:07:18;16.58;;;14.95;;
18720;SDS011;9489;50.948;3.114;2023-02-11T17:09:44;17.15;;;15.30;;
18720;SDS011;9489;50.948;3.114;2023-02-11T17:12:09;18.98;;;15.63;;
18720;SDS011;9489;50.948;3.114;2023-02-11T17:14:35;18.77;;;16.70;;
18720;SDS011;9489;50.948;3.114;2023-02-11T17:17:00;16.63;;;14.50;;
18720;SDS011;9489;50.948;3.114;2023-02-11T17:19:26;17.42;;;15.52;;
18720;SDS011;9489;50.948;3.114;2023-02-11T17:21:52;22.00;;;17.60;;
18720;SDS011;9489;50.948;3.114;2023-02-11T17:24:19;20.92;;;18.50;;
18720;SDS011;9489;50.948;3.114;2023-02-11T17:26:45;21.17;;;17.42;;
18720;SDS011;9489;50.948;3.114;2023-02-11T17:29:13;20.92;;;18.48;;
18720;SDS011;9489;50.948;3.114;2023-02-11T17:31:40;20.15;;;17.92;;
18720;SDS011;9489;50.948;3.114;2023-02-11T17:34:06;21.17;;;16.88;;
18720;SDS011;9489;50.948;3.114;2023-02-11T17:36:32;20.73;;;18.52;;
18720;SDS011;9489;50.948;3.114;2023-02-11T17:38:58;38.65;;;31.77;;
18720;SDS011;9489;50.948;3.114;2023-02-11T17:41:25;29.20;;;25.42;;
18720;SDS011;9489;50.948;3.114;2023-02-11T17:43:50;25.88;;;23.00;;
18720;SDS011;9489;50.948;3.114;2023-02-11T17:46:16;23.77;;;21.27;;
18720;SDS011;9489;50.948;3.114;2023-02-11T17:48:42;26.63;;;22.33;;
18720;SDS011;9489;50.948;3.114;2023-02-11T17:51:28;20.88;;;18.67;;
18720;SDS011;9489;50.948;3.114;2023-02-11T17:53:58;20.90;;;18.80;;
18720;SDS011;9489;50.948;3.114;2023-02-11T17:56:25;21.02;;;18.85;;